sensor_id;sensor_type;location;lat;lon;timestamp;pressure;altitude;pressure_sealevel;temperature;humidity
55191;BME280;41070;50.360;18.742;2023-02-11T00:01:20;100300.13;;;-3.01;77.77
55191;BME280;41070;50.360;18.742;2023-02-11T00:03:48;100299.52;;;-3.08;77.92
55191;BME280;41070;50.360;18.742;2023-02-11T00:06:15;100303.27;;;-3.12;77.94
55191;BME280;41070;50.360;18.742;2023-02-11T00:08:41;100304.27;;;-3.16;77.72
55191;BME280;41070;50.360;18.742;2023-02-11T00:11:12;100297.18;;;-3.15;77.96
55191;BME280;41070;50.360;18.742;2023-02-11T00:13:39;100296.33;;;-3.19;77.68
55191;BME280;41070;50.360;18.742;2023-02-11T00:16:08;100298.56;;;-3.23;77.75
55191;BME280;41070;50.360;18.742;2023-02-11T00:18:35;100293.67;;;-3.28;77.68
55191;BME280;41070;50.360;18.742;2023-02-11T00:21:11;100290.77;;;-3.36;77.72
55191;BME280;41070;50.360;18.742;2023-02-11T00:23:38;100287.79;;;-3.45;77.70
55191;BME280;41070;50.360;18.742;2023-02-11T00:26:10;100292.44;;;-3.48;78.31
55191;BME280;41070;50.360;18.742;2023-02-11T00:28:36;100290.15;;;-3.52;78.38
55191;BME280;41070;50.360;18.742;2023-02-11T00:31:03;100287.63;;;-3.54;78.54
55191;BME280;41070;50.360;18.742;2023-02-11T00:33:29;100284.34;;;-3.55;78.76
55191;BME280;41070;50.360;18.742;2023-02-11T00:35:56;100281.73;;;-3.57;78.43
55191;BME280;41070;50.360;18.742;2023-02-11T00:38:22;100274.47;;;-3.58;78.76
55191;BME280;41070;50.360;18.742;2023-02-11T00:40:48;100269.88;;;-3.58;78.74
55191;BME280;41070;50.360;18.742;2023-02-11T00:43:21;100267.23;;;-3.59;78.56
55191;BME280;41070;50.360;18.742;2023-02-11T00:45:47;100256.88;;;-3.59;78.92
55191;BME280;41070;50.360;18.742;2023-02-11T00:48:13;100243.98;;;-3.55;79.22
55191;BME280;41070;50.360;18.742;2023-02-11T00:50:40;100237.42;;;-3.47;79.68
55191;BME280;41070;50.360;18.742;2023-02-11T00:53:06;100221.95;;;-3.40;80.06
55191;BME280;41070;50.360;18.742;2023-02-11T00:55:33;100218.73;;;-3.33;79.91
55191;BME280;41070;50.360;18.742;2023-02-11T00:58:00;100225.20;;;-3.27;80.14
55191;BME280;41070;50.360;18.742;2023-02-11T01:00:26;100220.88;;;-3.21;79.87
55191;BME280;41070;50.360;18.742;2023-02-11T01:02:53;100215.50;;;-3.18;80.05
55191;BME280;41070;50.360;18.742;2023-02-11T01:05:19;100208.88;;;-3.15;79.95
55191;BME280;41070;50.360;18.742;2023-02-11T01:07:46;100195.52;;;-3.13;79.86
55191;BME280;41070;50.360;18.742;2023-02-11T01:10:13;100196.32;;;-3.12;80.04
55191;BME280;41070;50.360;18.742;2023-02-11T01:12:39;100194.17;;;-3.09;80.49
55191;BME280;41070;50.360;18.742;2023-02-11T01:15:07;100189.64;;;-3.06;80.37
55191;BME280;41070;50.360;18.742;2023-02-11T01:17:34;100189.52;;;-3.02;80.51
55191;BME280;41070;50.360;18.742;2023-02-11T01:20:03;100189.21;;;-2.98;80.44
55191;BME280;41070;50.360;18.742;2023-02-11T01:22:30;100189.69;;;-2.98;80.41
55191;BME280;41070;50.360;18.742;2023-02-11T01:24:56;100190.54;;;-2.96;80.41
55191;BME280;41070;50.360;18.742;2023-02-11T01:27:22;100186.69;;;-2.91;80.70
55191;BME280;41070;50.360;18.742;2023-02-11T01:29:49;100173.73;;;-2.87;80.49
55191;BME280;41070;50.360;18.742;2023-02-11T01:32:15;100170.70;;;-2.87;80.45
55191;BME280;41070;50.360;18.742;2023-02-11T01:34:42;100171.77;;;-2.86;80.27
55191;BME280;41070;50.360;18.742;2023-02-11T01:37:08;100179.30;;;-2.85;80.54
55191;BME280;41070;50.360;18.742;2023-02-11T01:39:35;100173.73;;;-2.83;80.50
55191;BME280;41070;50.360;18.742;2023-02-11T01:42:01;100167.30;;;-2.81;80.43
55191;BME280;41070;50.360;18.742;2023-02-11T01:44:35;100162.34;;;-2.80;80.54
55191;BME280;41070;50.360;18.742;2023-02-11T01:47:02;100163.27;;;-2.78;80.70
55191;BME280;41070;50.360;18.742;2023-02-11T01:49:33;100162.86;;;-2.76;80.64
55191;BME280;41070;50.360;18.742;2023-02-11T01:52:26;100153.60;;;-2.73;80.75
55191;BME280;41070;50.360;18.742;2023-02-11T01:54:58;100150.68;;;-2.71;80.54
55191;BME280;41070;50.360;18.742;2023-02-11T01:57:47;100146.45;;;-2.67;80.61
55191;BME280;41070;50.360;18.742;2023-02-11T02:00:24;100140.30;;;-2.63;80.72
55191;BME280;41070;50.360;18.742;2023-02-11T02:02:59;100134.61;;;-2.60;80.83
55191;BME280;41070;50.360;18.742;2023-02-11T02:05:41;100126.52;;;-2.59;80.64
55191;BME280;41070;50.360;18.742;2023-02-11T02:08:30;100110.59;;;-2.57;80.79
55191;BME280;41070;50.360;18.742;2023-02-11T02:10:59;100107.33;;;-2.53;80.95
55191;BME280;41070;50.360;18.742;2023-02-11T02:13:28;100100.55;;;-2.51;80.90
55191;BME280;41070;50.360;18.742;2023-02-11T02:15:57;100098.58;;;-2.50;80.81
55191;BME280;41070;50.360;18.742;2023-02-11T02:21:17;100104.67;;;-2.47;80.74
55191;BME280;41070;50.360;18.742;2023-02-11T02:24:09;100098.36;;;-2.46;80.79
55191;BME280;41070;50.360;18.742;2023-02-11T02:29:36;100093.42;;;-2.41;80.85
55191;BME280;41070;50.360;18.742;2023-02-11T02:32:29;100092.02;;;-2.37;80.82
55191;BME280;41070;50.360;18.742;2023-02-11T02:35:03;100083.15;;;-2.32;80.82
55191;BME280;41070;50.360;18.742;2023-02-11T02:38:01;100077.33;;;-2.30;80.74
55191;BME280;41070;50.360;18.742;2023-02-11T02:40:37;100061.56;;;-2.26;80.91
55191;BME280;41070;50.360;18.742;2023-02-11T02:43:07;100061.17;;;-2.23;80.71
55191;BME280;41070;50.360;18.742;2023-02-11T02:45:35;100054.17;;;-2.22;80.78
55191;BME280;41070;50.360;18.742;2023-02-11T02:48:28;100054.31;;;-2.20;80.58
55191;BME280;41070;50.360;18.742;2023-02-11T02:51:09;100055.53;;;-2.18;80.71
55191;BME280;41070;50.360;18.742;2023-02-11T02:54:03;100049.03;;;-2.17;80.64
55191;BME280;41070;50.360;18.742;2023-02-11T03:02:17;100046.54;;;-2.15;80.91
55191;BME280;41070;50.360;18.742;2023-02-11T03:04:52;100043.45;;;-2.13;80.92
55191;BME280;41070;50.360;18.742;2023-02-11T03:07:36;100048.77;;;-2.12;80.80
55191;BME280;41070;50.360;18.742;2023-02-11T03:12:45;100051.48;;;-2.10;80.71
55191;BME280;41070;50.360;18.742;2023-02-11T03:15:13;100043.69;;;-2.10;80.60
55191;BME280;41070;50.360;18.742;2023-02-11T03:17:44;100036.66;;;-2.09;80.53
55191;BME280;41070;50.360;18.742;2023-02-11T03:20:15;100031.38;;;-2.09;80.55
55191;BME280;41070;50.360;18.742;2023-02-11T03:22:49;100024.66;;;-2.07;80.72
55191;BME280;41070;50.360;18.742;2023-02-11T03:28:48;100023.22;;;-2.06;80.60
55191;BME280;41070;50.360;18.742;2023-02-11T03:31:51;100014.95;;;-2.05;80.74
55191;BME280;41070;50.360;18.742;2023-02-11T03:37:50;99995.88;;;-2.08;80.40
55191;BME280;41070;50.360;18.742;2023-02-11T03:40:26;99993.09;;;-2.08;80.48
55191;BME280;41070;50.360;18.742;2023-02-11T03:43:00;99986.52;;;-2.07;80.36
55191;BME280;41070;50.360;18.742;2023-02-11T03:45:28;99979.82;;;-2.08;80.36
55191;BME280;41070;50.360;18.742;2023-02-11T03:48:10;99972.98;;;-2.09;80.28
55191;BME280;41070;50.360;18.742;2023-02-11T03:50:38;99964.39;;;-2.11;80.46
55191;BME280;41070;50.360;18.742;2023-02-11T03:53:06;99962.65;;;-2.11;80.32
55191;BME280;41070;50.360;18.742;2023-02-11T03:55:37;99958.36;;;-2.11;80.36
55191;BME280;41070;50.360;18.742;2023-02-11T03:58:04;99956.17;;;-2.10;80.36
55191;BME280;41070;50.360;18.742;2023-02-11T04:00:35;99952.34;;;-2.10;80.24
55191;BME280;41070;50.360;18.742;2023-02-11T04:03:03;99948.51;;;-2.10;80.18
55191;BME280;41070;50.360;18.742;2023-02-11T04:05:30;99943.83;;;-2.11;80.32
55191;BME280;41070;50.360;18.742;2023-02-11T04:07:56;99934.38;;;-2.11;80.12
55191;BME280;41070;50.360;18.742;2023-02-11T04:10:22;99928.23;;;-2.12;80.15
55191;BME280;41070;50.360;18.742;2023-02-11T04:12:49;99925.88;;;-2.11;80.22
55191;BME280;41070;50.360;18.742;2023-02-11T04:15:15;99911.45;;;-2.12;80.18
55191;BME280;41070;50.360;18.742;2023-02-11T04:17:43;99908.62;;;-2.14;80.22
55191;BME280;41070;50.360;18.742;2023-02-11T04:20:10;99906.56;;;-2.14;80.17
55191;BME280;41070;50.360;18.742;2023-02-11T04:22:37;99907.61;;;-2.14;80.21
55191;BME280;41070;50.360;18.742;2023-02-11T04:25:05;99896.59;;;-2.14;80.04
55191;BME280;41070;50.360;18.742;2023-02-11T04:27:31;99899.21;;;-2.14;80.21
55191;BME280;41070;50.360;18.742;2023-02-11T04:29:58;99896.68;;;-2.15;80.12
55191;BME280;41070;50.360;18.742;2023-02-11T04:32:24;99897.38;;;-2.16;79.92
55191;BME280;41070;50.360;18.742;2023-02-11T04:34:50;99896.38;;;-2.16;80.01
55191;BME280;41070;50.360;18.742;2023-02-11T04:37:16;99904.29;;;-2.17;80.18
55191;BME280;41070;50.360;18.742;2023-02-11T04:39:43;99911.99;;;-2.16;80.03
55191;BME280;41070;50.360;18.742;2023-02-11T04:42:09;99912.02;;;-2.16;80.07
55191;BME280;41070;50.360;18.742;2023-02-11T04:44:36;99909.20;;;-2.15;79.93
55191;BME280;41070;50.360;18.742;2023-02-11T04:47:02;99905.07;;;-2.14;80.16
55191;BME280;41070;50.360;18.742;2023-02-11T04:49:28;99912.86;;;-2.14;80.10
55191;BME280;41070;50.360;18.742;2023-02-11T04:51:55;99920.59;;;-2.13;80.02
55191;BME280;41070;50.360;18.742;2023-02-11T04:54:21;99915.78;;;-2.12;80.04
55191;BME280;41070;50.360;18.742;2023-02-11T04:56:47;99917.36;;;-2.12;79.90
55191;BME280;41070;50.360;18.742;2023-02-11T04:59:16;99916.84;;;-2.12;80.03
55191;BME280;41070;50.360;18.742;2023-02-11T05:01:42;99916.27;;;-2.09;80.19
55191;BME280;41070;50.360;18.742;2023-02-11T05:04:08;99912.64;;;-2.08;80.13
55191;BME280;41070;50.360;18.742;2023-02-11T05:06:37;99909.08;;;-2.07;80.06
55191;BME280;41070;50.360;18.742;2023-02-11T05:09:04;99906.76;;;-2.06;79.88
55191;BME280;41070;50.360;18.742;2023-02-11T05:11:31;99899.84;;;-2.05;79.88
55191;BME280;41070;50.360;18.742;2023-02-11T05:13:57;99895.83;;;-2.04;79.98
55191;BME280;41070;50.360;18.742;2023-02-11T05:16:24;99897.97;;;-2.02;80.05
55191;BME280;41070;50.360;18.742;2023-02-11T05:18:50;99902.02;;;-2.00;79.99
55191;BME280;41070;50.360;18.742;2023-02-11T05:21:17;99905.89;;;-2.00;79.70
55191;BME280;41070;50.360;18.742;2023-02-11T05:23:44;99909.65;;;-2.01;79.77
55191;BME280;41070;50.360;18.742;2023-02-11T05:26:20;99912.61;;;-2.00;79.74
55191;BME280;41070;50.360;18.742;2023-02-11T05:28:46;99922.23;;;-1.97;79.74
55191;BME280;41070;50.360;18.742;2023-02-11T05:31:12;99930.50;;;-1.95;79.56
55191;BME280;41070;50.360;18.742;2023-02-11T05:33:39;99935.81;;;-1.93;79.62
55191;BME280;41070;50.360;18.742;2023-02-11T05:36:08;99933.98;;;-1.92;79.69
55191;BME280;41070;50.360;18.742;2023-02-11T05:38:35;99934.52;;;-1.91;79.69
55191;BME280;41070;50.360;18.742;2023-02-11T05:41:03;99927.11;;;-1.90;79.60
55191;BME280;41070;50.360;18.742;2023-02-11T05:43:30;99924.46;;;-1.91;79.59
55191;BME280;41070;50.360;18.742;2023-02-11T05:45:56;99910.90;;;-1.90;79.61
55191;BME280;41070;50.360;18.742;2023-02-11T05:48:22;99907.30;;;-1.91;79.50
55191;BME280;41070;50.360;18.742;2023-02-11T05:50:49;99900.15;;;-1.92;79.27
55191;BME280;41070;50.360;18.742;2023-02-11T05:53:15;99894.02;;;-1.93;79.44
55191;BME280;41070;50.360;18.742;2023-02-11T05:55:41;99878.24;;;-1.95;79.29
55191;BME280;41070;50.360;18.742;2023-02-11T05:58:08;99878.34;;;-1.98;79.38
55191;BME280;41070;50.360;18.742;2023-02-11T06:00:34;99880.56;;;-1.99;79.59
55191;BME280;41070;50.360;18.742;2023-02-11T06:03:01;99879.40;;;-2.00;79.67
55191;BME280;41070;50.360;18.742;2023-02-11T06:05:29;99873.98;;;-2.01;79.65
55191;BME280;41070;50.360;18.742;2023-02-11T06:07:55;99859.31;;;-2.02;79.57
55191;BME280;41070;50.360;18.742;2023-02-11T06:10:22;99853.92;;;-2.04;79.72
55191;BME280;41070;50.360;18.742;2023-02-11T06:12:48;99855.86;;;-2.04;79.63
55191;BME280;41070;50.360;18.742;2023-02-11T06:15:15;99855.23;;;-2.04;79.73
55191;BME280;41070;50.360;18.742;2023-02-11T06:17:41;99857.65;;;-2.04;79.72
55191;BME280;41070;50.360;18.742;2023-02-11T06:20:08;99861.41;;;-2.04;79.80
55191;BME280;41070;50.360;18.742;2023-02-11T06:22:35;99860.94;;;-2.05;79.79
55191;BME280;41070;50.360;18.742;2023-02-11T06:25:02;99854.59;;;-2.04;79.77
55191;BME280;41070;50.360;18.742;2023-02-11T06:27:32;99852.81;;;-2.04;79.79
55191;BME280;41070;50.360;18.742;2023-02-11T06:29:58;99845.38;;;-2.03;79.78
55191;BME280;41070;50.360;18.742;2023-02-11T06:32:26;99845.42;;;-2.02;79.71
55191;BME280;41070;50.360;18.742;2023-02-11T06:34:53;99854.31;;;-2.00;79.75
55191;BME280;41070;50.360;18.742;2023-02-11T06:37:20;99848.04;;;-1.99;79.93
55191;BME280;41070;50.360;18.742;2023-02-11T06:39:49;99850.84;;;-1.95;79.87
55191;BME280;41070;50.360;18.742;2023-02-11T06:42:16;99850.02;;;-1.92;79.78
55191;BME280;41070;50.360;18.742;2023-02-11T06:44:43;99853.42;;;-1.91;79.91
55191;BME280;41070;50.360;18.742;2023-02-11T06:47:13;99852.64;;;-1.90;79.66
55191;BME280;41070;50.360;18.742;2023-02-11T06:49:39;99854.99;;;-1.88;79.73
55191;BME280;41070;50.360;18.742;2023-02-11T06:52:07;99855.11;;;-1.88;79.82
55191;BME280;41070;50.360;18.742;2023-02-11T06:54:33;99854.14;;;-1.88;79.63
55191;BME280;41070;50.360;18.742;2023-02-11T06:57:00;99848.53;;;-1.88;79.75
55191;BME280;41070;50.360;18.742;2023-02-11T06:59:28;99851.45;;;-1.89;79.73
55191;BME280;41070;50.360;18.742;2023-02-11T07:01:58;99854.06;;;-1.90;79.60
55191;BME280;41070;50.360;18.742;2023-02-11T07:04:41;99855.04;;;-1.91;79.86
55191;BME280;41070;50.360;18.742;2023-02-11T07:12:55;99848.74;;;-1.91;79.79
55191;BME280;41070;50.360;18.742;2023-02-11T07:16:18;99844.44;;;-1.91;79.79
55191;BME280;41070;50.360;18.742;2023-02-11T07:18:47;99846.78;;;-1.92;79.71
55191;BME280;41070;50.360;18.742;2023-02-11T07:21:36;99841.04;;;-1.89;79.73
55191;BME280;41070;50.360;18.742;2023-02-11T07:24:07;99836.47;;;-1.84;79.98
55191;BME280;41070;50.360;18.742;2023-02-11T07:26:34;99843.86;;;-1.79;80.01
55191;BME280;41070;50.360;18.742;2023-02-11T07:29:57;99834.16;;;-1.68;80.17
55191;BME280;41070;50.360;18.742;2023-02-11T07:35:43;99817.71;;;-1.51;79.89
55191;BME280;41070;50.360;18.742;2023-02-11T07:38:15;99815.75;;;-1.44;79.97
55191;BME280;41070;50.360;18.742;2023-02-11T07:40:47;99812.19;;;-1.35;79.93
55191;BME280;41070;50.360;18.742;2023-02-11T07:43:38;99810.95;;;-1.28;79.75
55191;BME280;41070;50.360;18.742;2023-02-11T07:46:09;99808.05;;;-1.21;79.76
55191;BME280;41070;50.360;18.742;2023-02-11T07:48:40;99802.95;;;-1.15;79.72
55191;BME280;41070;50.360;18.742;2023-02-11T07:51:29;99791.61;;;-1.08;79.73
55191;BME280;41070;50.360;18.742;2023-02-11T07:54:15;99790.48;;;-1.04;79.63
55191;BME280;41070;50.360;18.742;2023-02-11T07:57:23;99787.61;;;-0.99;79.57
55191;BME280;41070;50.360;18.742;2023-02-11T08:00:25;99796.16;;;-0.89;79.45
55191;BME280;41070;50.360;18.742;2023-02-11T08:03:36;99802.61;;;-0.77;79.55
55191;BME280;41070;50.360;18.742;2023-02-11T08:06:30;99801.28;;;-0.69;79.43
55191;BME280;41070;50.360;18.742;2023-02-11T08:09:25;99799.41;;;-0.63;79.22
55191;BME280;41070;50.360;18.742;2023-02-11T08:12:55;99808.41;;;-0.53;79.35
55191;BME280;41070;50.360;18.742;2023-02-11T08:15:22;99814.25;;;-0.49;79.24
55191;BME280;41070;50.360;18.742;2023-02-11T08:17:49;99818.42;;;-0.46;78.98
55191;BME280;41070;50.360;18.742;2023-02-11T08:20:19;99823.16;;;-0.41;79.01
55191;BME280;41070;50.360;18.742;2023-02-11T08:22:45;99826.68;;;-0.38;78.67
55191;BME280;41070;50.360;18.742;2023-02-11T08:25:12;99827.11;;;-0.35;78.83
55191;BME280;41070;50.360;18.742;2023-02-11T08:27:38;99821.93;;;-0.29;78.74
55191;BME280;41070;50.360;18.742;2023-02-11T08:30:05;99819.35;;;-0.22;78.66
55191;BME280;41070;50.360;18.742;2023-02-11T08:32:33;99818.35;;;-0.18;78.45
55191;BME280;41070;50.360;18.742;2023-02-11T08:38:14;99805.48;;;-0.13;78.34
55191;BME280;41070;50.360;18.742;2023-02-11T08:40:42;99813.93;;;-0.07;78.54
55191;BME280;41070;50.360;18.742;2023-02-11T08:43:10;99811.72;;;0.01;78.13
55191;BME280;41070;50.360;18.742;2023-02-11T08:45:36;99825.14;;;0.05;78.20
55191;BME280;41070;50.360;18.742;2023-02-11T08:48:03;99823.66;;;0.09;78.29
55191;BME280;41070;50.360;18.742;2023-02-11T08:50:29;99810.46;;;0.13;78.00
55191;BME280;41070;50.360;18.742;2023-02-11T08:52:57;99799.61;;;0.17;77.88
55191;BME280;41070;50.360;18.742;2023-02-11T08:55:24;99798.95;;;0.23;77.78
55191;BME280;41070;50.360;18.742;2023-02-11T08:57:51;99801.05;;;0.29;77.66
55191;BME280;41070;50.360;18.742;2023-02-11T09:03:53;99814.80;;;0.35;77.57
55191;BME280;41070;50.360;18.742;2023-02-11T09:10:23;99824.11;;;0.39;77.59
55191;BME280;41070;50.360;18.742;2023-02-11T09:13:12;99830.55;;;0.44;77.24
55191;BME280;41070;50.360;18.742;2023-02-11T09:15:43;99834.98;;;0.49;76.95
55191;BME280;41070;50.360;18.742;2023-02-11T09:22:17;99853.95;;;0.53;76.81
55191;BME280;41070;50.360;18.742;2023-02-11T09:24:49;99853.35;;;0.56;76.99
55191;BME280;41070;50.360;18.742;2023-02-11T09:30:31;99857.16;;;0.57;76.82
55191;BME280;41070;50.360;18.742;2023-02-11T09:33:18;99856.76;;;0.59;76.60
55191;BME280;41070;50.360;18.742;2023-02-11T09:35:47;99859.69;;;0.62;76.65
55191;BME280;41070;50.360;18.742;2023-02-11T09:38:35;99846.71;;;0.70;77.04
55191;BME280;41070;50.360;18.742;2023-02-11T09:44:03;99830.23;;;0.85;76.25
55191;BME280;41070;50.360;18.742;2023-02-11T09:46:46;99831.60;;;0.95;76.48
55191;BME280;41070;50.360;18.742;2023-02-11T09:49:22;99831.67;;;0.97;76.02
55191;BME280;41070;50.360;18.742;2023-02-11T09:51:57;99835.69;;;0.97;76.00
55191;BME280;41070;50.360;18.742;2023-02-11T09:54:40;99836.31;;;0.99;76.16
55191;BME280;41070;50.360;18.742;2023-02-11T09:57:16;99837.52;;;1.07;75.59
55191;BME280;41070;50.360;18.742;2023-02-11T09:59:43;99831.98;;;1.11;75.59
55191;BME280;41070;50.360;18.742;2023-02-11T10:02:19;99832.08;;;1.12;75.55
55191;BME280;41070;50.360;18.742;2023-02-11T10:05:13;99818.72;;;1.14;75.49
55191;BME280;41070;50.360;18.742;2023-02-11T10:07:53;99817.77;;;1.22;75.38
55191;BME280;41070;50.360;18.742;2023-02-11T10:11:10;99800.81;;;1.29;75.02
55191;BME280;41070;50.360;18.742;2023-02-11T10:18:45;99789.42;;;1.42;75.13
55191;BME280;41070;50.360;18.742;2023-02-11T10:21:24;99770.27;;;1.42;75.21
55191;BME280;41070;50.360;18.742;2023-02-11T10:24:02;99751.97;;;1.51;75.57
55191;BME280;41070;50.360;18.742;2023-02-11T10:26:33;99746.41;;;1.65;75.35
55191;BME280;41070;50.360;18.742;2023-02-11T10:29:10;99735.77;;;1.68;75.06
55191;BME280;41070;50.360;18.742;2023-02-11T10:31:42;99724.66;;;1.64;74.66
55191;BME280;41070;50.360;18.742;2023-02-11T10:34:10;99712.61;;;1.60;74.63
55191;BME280;41070;50.360;18.742;2023-02-11T10:36:39;99699.15;;;1.59;75.25
55191;BME280;41070;50.360;18.742;2023-02-11T10:39:22;99683.70;;;1.63;75.06
55191;BME280;41070;50.360;18.742;2023-02-11T10:41:54;99677.48;;;1.62;74.69
55191;BME280;41070;50.360;18.742;2023-02-11T10:44:35;99666.92;;;1.63;74.82
55191;BME280;41070;50.360;18.742;2023-02-11T10:51:23;99671.46;;;1.74;74.79
55191;BME280;41070;50.360;18.742;2023-02-11T10:56:48;99678.02;;;1.90;75.10
55191;BME280;41070;50.360;18.742;2023-02-11T10:59:36;99681.96;;;1.87;74.56
55191;BME280;41070;50.360;18.742;2023-02-11T11:04:54;99687.67;;;1.74;74.54
55191;BME280;41070;50.360;18.742;2023-02-11T11:07:54;99686.63;;;1.66;74.86
55191;BME280;41070;50.360;18.742;2023-02-11T11:11:01;99686.33;;;1.59;74.89
55191;BME280;41070;50.360;18.742;2023-02-11T11:13:58;99682.20;;;1.55;75.05
55191;BME280;41070;50.360;18.742;2023-02-11T11:17:16;99677.83;;;1.58;75.54
55191;BME280;41070;50.360;18.742;2023-02-11T11:19:45;99674.21;;;1.62;75.65
55191;BME280;41070;50.360;18.742;2023-02-11T11:22:29;99680.33;;;1.63;75.31
55191;BME280;41070;50.360;18.742;2023-02-11T11:24:59;99676.28;;;1.66;75.70
55191;BME280;41070;50.360;18.742;2023-02-11T11:27:48;99673.80;;;1.64;75.72
55191;BME280;41070;50.360;18.742;2023-02-11T11:30:26;99671.25;;;1.61;75.97
55191;BME280;41070;50.360;18.742;2023-02-11T11:32:58;99654.44;;;1.57;76.03
55191;BME280;41070;50.360;18.742;2023-02-11T11:35:29;99650.68;;;1.54;75.94
55191;BME280;41070;50.360;18.742;2023-02-11T11:38:03;99643.92;;;1.53;76.19
55191;BME280;41070;50.360;18.742;2023-02-11T11:40:34;99643.19;;;1.54;76.39
55191;BME280;41070;50.360;18.742;2023-02-11T11:46:43;99658.21;;;1.60;76.16
55191;BME280;41070;50.360;18.742;2023-02-11T11:49:34;99670.92;;;1.59;76.35
55191;BME280;41070;50.360;18.742;2023-02-11T11:52:17;99665.27;;;1.57;76.28
55191;BME280;41070;50.360;18.742;2023-02-11T11:55:52;99678.33;;;1.54;76.42
55191;BME280;41070;50.360;18.742;2023-02-11T12:14:48;99700.55;;;1.47;77.25
55191;BME280;41070;50.360;18.742;2023-02-11T12:23:00;99688.55;;;1.44;77.34
55191;BME280;41070;50.360;18.742;2023-02-11T12:25:52;99694.67;;;1.43;77.32
55191;BME280;41070;50.360;18.742;2023-02-11T12:37:49;99654.89;;;1.31;78.91
55191;BME280;41070;50.360;18.742;2023-02-11T12:43:38;99631.75;;;1.26;79.56
55191;BME280;41070;50.360;18.742;2023-02-11T12:46:52;99625.47;;;1.25;79.32
55191;BME280;41070;50.360;18.742;2023-02-11T12:49:28;99605.32;;;1.23;79.77
55191;BME280;41070;50.360;18.742;2023-02-11T12:55:02;99576.52;;;1.24;80.27
55191;BME280;41070;50.360;18.742;2023-02-11T12:57:34;99583.23;;;1.24;80.31
55191;BME280;41070;50.360;18.742;2023-02-11T13:00:29;99602.87;;;1.22;80.54
55191;BME280;41070;50.360;18.742;2023-02-11T13:03:13;99618.95;;;1.17;80.75
55191;BME280;41070;50.360;18.742;2023-02-11T13:06:16;99625.47;;;1.16;80.86
55191;BME280;41070;50.360;18.742;2023-02-11T13:09:22;99613.71;;;1.13;81.28
55191;BME280;41070;50.360;18.742;2023-02-11T13:12:09;99611.39;;;1.13;81.44
55191;BME280;41070;50.360;18.742;2023-02-11T13:15:21;99600.21;;;1.14;81.82
55191;BME280;41070;50.360;18.742;2023-02-11T13:18:11;99597.48;;;1.16;81.69
55191;BME280;41070;50.360;18.742;2023-02-11T13:20:50;99596.85;;;1.17;82.04
55191;BME280;41070;50.360;18.742;2023-02-11T13:33:03;99544.42;;;1.26;82.97
55191;BME280;41070;50.360;18.742;2023-02-11T13:36:15;99519.39;;;1.30;83.95
55191;BME280;41070;50.360;18.742;2023-02-11T13:39:18;99528.69;;;1.32;83.76
55191;BME280;41070;50.360;18.742;2023-02-11T13:41:46;99542.91;;;1.30;83.78
55191;BME280;41070;50.360;18.742;2023-02-11T13:44:26;99549.33;;;1.26;83.90
55191;BME280;41070;50.360;18.742;2023-02-11T13:47:32;99547.48;;;1.24;84.25
55191;BME280;41070;50.360;18.742;2023-02-11T13:51:39;99551.41;;;1.19;84.50
55191;BME280;41070;50.360;18.742;2023-02-11T14:06:23;99575.16;;;1.14;85.04
55191;BME280;41070;50.360;18.742;2023-02-11T14:09:38;99575.37;;;1.13;85.60
55191;BME280;41070;50.360;18.742;2023-02-11T14:12:33;99569.58;;;1.15;85.29
55191;BME280;41070;50.360;18.742;2023-02-11T14:17:35;99569.41;;;1.14;85.57
55191;BME280;41070;50.360;18.742;2023-02-11T14:20:04;99575.70;;;1.15;85.49
55191;BME280;41070;50.360;18.742;2023-02-11T14:22:49;99588.27;;;1.16;85.79
55191;BME280;41070;50.360;18.742;2023-02-11T14:25:19;99583.09;;;1.17;85.46
55191;BME280;41070;50.360;18.742;2023-02-11T14:28:05;99587.24;;;1.16;85.58
55191;BME280;41070;50.360;18.742;2023-02-11T14:30:41;99592.63;;;1.16;86.01
55191;BME280;41070;50.360;18.742;2023-02-11T14:33:27;99590.05;;;1.17;85.82
55191;BME280;41070;50.360;18.742;2023-02-11T14:36:07;99584.88;;;1.17;85.61
55191;BME280;41070;50.360;18.742;2023-02-11T14:38:59;99587.30;;;1.15;85.94
55191;BME280;41070;50.360;18.742;2023-02-11T14:41:38;99597.84;;;1.15;85.91
55191;BME280;41070;50.360;18.742;2023-02-11T14:44:22;99602.59;;;1.16;85.48
55191;BME280;41070;50.360;18.742;2023-02-11T14:46:53;99600.64;;;1.18;85.50
55191;BME280;41070;50.360;18.742;2023-02-11T14:49:29;99601.08;;;1.19;85.57
55191;BME280;41070;50.360;18.742;2023-02-11T14:52:06;99597.95;;;1.17;85.78
55191;BME280;41070;50.360;18.742;2023-02-11T14:54:39;99603.77;;;1.17;85.73
55191;BME280;41070;50.360;18.742;2023-02-11T14:59:39;99601.92;;;1.19;85.61
55191;BME280;41070;50.360;18.742;2023-02-11T15:02:22;99610.98;;;1.19;85.29
55191;BME280;41070;50.360;18.742;2023-02-11T15:04:50;99609.15;;;1.19;85.52
55191;BME280;41070;50.360;18.742;2023-02-11T15:07:17;99611.14;;;1.17;85.45
55191;BME280;41070;50.360;18.742;2023-02-11T15:09:50;99611.09;;;1.17;85.37
55191;BME280;41070;50.360;18.742;2023-02-11T15:12:21;99615.57;;;1.17;85.50
55191;BME280;41070;50.360;18.742;2023-02-11T15:14:54;99615.83;;;1.16;85.47
55191;BME280;41070;50.360;18.742;2023-02-11T15:17:24;99611.18;;;1.16;85.44
55191;BME280;41070;50.360;18.742;2023-02-11T15:19:53;99618.14;;;1.14;85.81
55191;BME280;41070;50.360;18.742;2023-02-11T15:22:26;99617.60;;;1.13;85.80
55191;BME280;41070;50.360;18.742;2023-02-11T15:25:10;99626.09;;;1.13;86.22
55191;BME280;41070;50.360;18.742;2023-02-11T15:27:46;99621.80;;;1.12;85.87
55191;BME280;41070;50.360;18.742;2023-02-11T15:30:26;99629.87;;;1.11;86.11
55191;BME280;41070;50.360;18.742;2023-02-11T15:33:02;99632.40;;;1.10;86.56
55191;BME280;41070;50.360;18.742;2023-02-11T15:35:38;99634.06;;;1.08;86.50
55191;BME280;41070;50.360;18.742;2023-02-11T15:38:06;99636.70;;;1.07;86.75
55191;BME280;41070;50.360;18.742;2023-02-11T15:40:35;99635.99;;;1.05;86.72
55191;BME280;41070;50.360;18.742;2023-02-11T15:43:04;99635.27;;;1.05;87.12
55191;BME280;41070;50.360;18.742;2023-02-11T15:48:18;99643.08;;;1.06;86.93